AirNav    Bose A20 Aviation Headset
 
 1644 users online  

TE45 Buffalo Chips Airpark
Joshua, Texas, USA

GOING TO JOSHUA?


FAA INFORMATION EFFECTIVE 15 AUGUST 2019

Location

FAA Identifier: TE45
Lat/Long: 32-28-11.5020N 097-27-55.0720W
32-28.191700N 097-27.917867W
32.4698617,-97.4652978
(estimated)
Elevation: 960 ft. / 293 m (estimated)
Variation: 07E (1985)
From city: 4 miles NE of JOSHUA, TX
Time zone: UTC -5 (UTC -6 during Standard Time)
Zip code: 76058

Airport Operations

Airport use: Private use. Permission required prior to landing
Activation date: 03/1988
Control tower: no
ARTCC: FORT WORTH CENTER
FSS: FORT WORTH FLIGHT SERVICE STATION
Attendance: UNATNDD
Wind indicator: yes
Segmented circle: no

Airport Communications

WX AWOS-3 at CPT (7 nm S): 119.525 (817-641-4135)
WX AWOS-3 at FWS (10 nm NE): 120.025 (817-426-4172)
WX AWOS-3 at GDJ (18 nm W): 118.925 (817-573-7514)

Nearby radio navigation aids

VOR radial/distance  VOR name  Freq  Var
JENr042/28.0GLEN ROSE VORTAC115.0006E
FUZr204/29.0RANGER VORTAC115.7006E
MQPr111/31.0MILLSAP VORTAC117.7009E
TTTr216/32.2MAVERICK VOR/DME113.1006E
CVEr222/37.9COWBOY VOR/DME116.2006E

Airport Services

Runway Information

Runway 17/35

Dimensions: 5400 x 100 ft. / 1646 x 30 m
Surface: turf
RUNWAY 17  RUNWAY 35
Traffic pattern: leftleft
Displaced threshold: 500 ft.500 ft.
Obstructions: 25 ft. plines, marked and lighted, 100 ft. from runway25 ft. plines, marked and lighted, 100 ft. from runway

Airport Ownership and Management from official FAA records

Ownership: Privately-owned
Owner: ALAN SPARKS
BOX 1456
JOSHUA, TX 76058
Phone 817-558-7715
Manager: ALAN SPARKS
BOX 1456
JOSHUA, TX 76058
Phone 817-558-7715

Airport Operational Statistics

Aircraft based on the field: 31
Single engine airplanes: 8
Multi engine airplanes: 2
Jet airplanes: 3
Helicopters: 18
    

Additional Remarks

FOR CD CTC REGIONAL APCH AT 972-615-2799.

Instrument Procedures

There are no published instrument procedures at TE45.

Some nearby airports with instrument procedures:

KCPT - Cleburne Regional Airport (7 nm S)
50F - Bourland Field Airport (9 nm NW)
KFWS - Fort Worth Spinks Airport (10 nm NE)
KGDJ - Granbury Regional Airport (18 nm W)
KNFW - Fort Worth Naval Air Station JRB (Carswell Field) Airport (18 nm N)
KWEA - Parker County Airport (20 nm NW)
 
Loc | Ops | Rwys | IFR | FBO | Links
Com | Nav | Svcs | Stats | Notes
Area around TE45 (Buffalo Chips Airpark)
 
Road maps at: MapQuest Bing Google
 
Aerial photo
No photo
 
Sectional chart

 
Airport distance calculator
Flying to Buffalo Chips Airpark? Find the distance to fly.

From to TE45

Sunrise and sunset
Times for 21-Aug-2019
 Local
(UTC-5)
 Zulu
(UTC)
Morning civil twilight06:3311:33
Sunrise06:5911:59
Sunset20:0701:07
Evening civil twilight20:3301:33

Current date and time
Zulu (UTC)  21-Aug-2019 15:29:21
Local (UTC-5)  21-Aug-2019 10:29:21
 
METAR
KCPT 
7nm S 
211515Z AUTO 20005KT 10SM CLR 31/20 A3006 RMK AO2
KFWS 
10nm NE 
211446Z 00000KT 7SM CLR 30/21 A3005
KNFW 
18nm N 
211452Z VRB03KT 10SM CLR 31/20 A3003 RMK AO2 SLP152 T03110200 51016 CHINO N VISNO N $
KGDJ 
18nm W 
AWOS-3 118.925 817-573-7514
211515Z AUTO 00000KT 10SM CLR 32/19 A3005 RMK AO2 T03200186
TAF
KNFW 
18nm N 
2107/2207 17010KT 9999 FEW070 QNH2989INS FM211900 15010KT 9999 SCT080 QNH2982INS FM220500 16010KT 9999 FEW050 QNH2985INS AUTOMATED SENSOR METWATCH 2107 TIL 2111 T27/2112Z T39/2122Z FN00204
KGKY 
22nm NE 
211120Z 2112/2212 17008KT P6SM SCT090
NOTAMs
Click for the latest NOTAMs
NOTAMs are issued by the DoD/FAA and will open in a separate window not controlled by AirNav.

 

 
 

Would you like to see your business listed on this page?

 If your business provides an interesting product or service to pilots, flight crews, aircraft, or users of the Buffalo Chips Airpark, you should consider listing it here.  To start the listing process, click on the button below
 
Add a business
 

Other Pages about Buffalo Chips Airpark

Update a link
 
Copyright © AirNav, LLC. All rights reserved. Privacy Policy  Contact